sensor_id;sensor_type;location;lat;lon;timestamp;pressure;altitude;pressure_sealevel;temperature;humidity
59272;BME280;45043;51.068;7.026;2023-05-31T05:18:02;101187.66;;;14.80;44.17
59272;BME280;45043;51.068;7.026;2023-05-31T05:21:03;101189.50;;;14.80;44.19
59272;BME280;45043;51.068;7.026;2023-05-31T05:24:06;101184.56;;;14.83;44.22
59272;BME280;45043;51.068;7.026;2023-05-31T05:27:07;101179.00;;;14.92;44.17
59272;BME280;45043;51.068;7.026;2023-05-31T05:30:11;101187.84;;;14.99;44.18
59272;BME280;45043;51.068;7.026;2023-05-31T05:33:11;101191.53;;;15.04;43.99
59272;BME280;45043;51.068;7.026;2023-05-31T05:36:12;101191.94;;;15.15;43.92
59272;BME280;45043;51.068;7.026;2023-05-31T05:39:18;101195.63;;;15.20;43.78
59272;BME280;45043;51.068;7.026;2023-05-31T05:42:26;101195.41;;;15.28;43.53
59272;BME280;45043;51.068;7.026;2023-05-31T05:45:45;101197.44;;;15.33;43.51
59272;BME280;45043;51.068;7.026;2023-05-31T05:48:59;101192.47;;;15.43;42.94
59272;BME280;45043;51.068;7.026;2023-05-31T05:52:16;101191.22;;;15.52;42.82
59272;BME280;45043;51.068;7.026;2023-05-31T05:55:22;101190.59;;;15.57;42.75
59272;BME280;45043;51.068;7.026;2023-05-31T05:58:37;101197.56;;;15.65;42.33
59272;BME280;45043;51.068;7.026;2023-05-31T06:02:07;101194.47;;;15.68;41.65
59272;BME280;45043;51.068;7.026;2023-05-31T06:05:24;101195.09;;;15.70;41.62
59272;BME280;45043;51.068;7.026;2023-05-31T06:08:37;101195.06;;;15.76;41.85
59272;BME280;45043;51.068;7.026;2023-05-31T06:11:52;101199.75;;;15.88;41.63
59272;BME280;45043;51.068;7.026;2023-05-31T06:15:30;101197.41;;;15.98;41.82
59272;BME280;45043;51.068;7.026;2023-05-31T06:18:40;101199.19;;;16.11;41.16
59272;BME280;45043;51.068;7.026;2023-05-31T06:21:57;101199.53;;;16.21;40.87
59272;BME280;45043;51.068;7.026;2023-05-31T06:25:21;101201.53;;;16.32;40.67
59272;BME280;45043;51.068;7.026;2023-05-31T06:28:52;101202.16;;;16.34;40.49
59272;BME280;45043;51.068;7.026;2023-05-31T06:32:47;101198.78;;;16.45;40.61
59272;BME280;45043;51.068;7.026;2023-05-31T06:36:13;101194.94;;;16.60;40.36
59272;BME280;45043;51.068;7.026;2023-05-31T06:39:28;101199.00;;;16.69;40.13
59272;BME280;45043;51.068;7.026;2023-05-31T06:42:32;101196.88;;;16.78;39.93
59272;BME280;45043;51.068;7.026;2023-05-31T06:45:56;101190.53;;;16.90;39.08
59272;BME280;45043;51.068;7.026;2023-05-31T06:49:23;101193.63;;;16.94;38.38
59272;BME280;45043;51.068;7.026;2023-05-31T06:52:52;101199.75;;;17.01;38.42
59272;BME280;45043;51.068;7.026;2023-05-31T06:56:19;101199.97;;;16.99;38.24
59272;BME280;45043;51.068;7.026;2023-05-31T06:59:21;101199.06;;;17.06;38.10
59272;BME280;45043;51.068;7.026;2023-05-31T07:02:22;101204.38;;;17.12;37.76
59272;BME280;45043;51.068;7.026;2023-05-31T07:05:22;101198.59;;;17.15;37.60
59272;BME280;45043;51.068;7.026;2023-05-31T07:08:24;101198.53;;;17.22;37.68
59272;BME280;45043;51.068;7.026;2023-05-31T07:12:00;101198.28;;;17.23;37.24
59272;BME280;45043;51.068;7.026;2023-05-31T07:15:04;101206.06;;;17.32;37.43
59272;BME280;45043;51.068;7.026;2023-05-31T07:18:05;101203.81;;;17.47;36.95
59272;BME280;45043;51.068;7.026;2023-05-31T07:21:07;101198.06;;;17.62;36.75
59272;BME280;45043;51.068;7.026;2023-05-31T07:24:08;101192.69;;;17.62;35.82
59272;BME280;45043;51.068;7.026;2023-05-31T07:27:10;101195.53;;;17.49;35.67
59272;BME280;45043;51.068;7.026;2023-05-31T07:30:10;101180.38;;;17.54;35.48
59272;BME280;45043;51.068;7.026;2023-05-31T07:33:11;101189.84;;;17.57;35.75
59272;BME280;45043;51.068;7.026;2023-05-31T07:36:11;101183.59;;;17.63;35.05
59272;BME280;45043;51.068;7.026;2023-05-31T07:39:12;101179.41;;;17.67;35.04
59272;BME280;45043;51.068;7.026;2023-05-31T07:42:12;101185.97;;;17.71;34.59
59272;BME280;45043;51.068;7.026;2023-05-31T07:45:13;101185.34;;;17.69;34.31
59272;BME280;45043;51.068;7.026;2023-05-31T07:48:18;101187.78;;;17.59;33.91
59272;BME280;45043;51.068;7.026;2023-05-31T07:51:18;101191.72;;;17.56;34.39
59272;BME280;45043;51.068;7.026;2023-05-31T07:54:19;101188.28;;;17.67;34.49
59272;BME280;45043;51.068;7.026;2023-05-31T07:57:19;101187.16;;;17.75;33.88
59272;BME280;45043;51.068;7.026;2023-05-31T08:00:20;101183.31;;;17.83;33.66
59272;BME280;45043;51.068;7.026;2023-05-31T08:03:20;101183.69;;;17.86;33.25
59272;BME280;45043;51.068;7.026;2023-05-31T08:06:21;101183.63;;;17.93;33.13
59272;BME280;45043;51.068;7.026;2023-05-31T08:09:22;101183.53;;;18.00;32.78
59272;BME280;45043;51.068;7.026;2023-05-31T08:12:23;101172.91;;;18.05;32.39
59272;BME280;45043;51.068;7.026;2023-05-31T08:15:23;101178.41;;;18.10;32.48
59272;BME280;45043;51.068;7.026;2023-05-31T08:18:23;101178.69;;;18.20;32.59
59272;BME280;45043;51.068;7.026;2023-05-31T08:21:24;101176.72;;;18.27;32.16
59272;BME280;45043;51.068;7.026;2023-05-31T08:24:24;101165.50;;;18.30;31.30
59272;BME280;45043;51.068;7.026;2023-05-31T08:27:25;101173.22;;;18.38;31.14
59272;BME280;45043;51.068;7.026;2023-05-31T08:30:25;101169.38;;;18.46;31.03
59272;BME280;45043;51.068;7.026;2023-05-31T08:33:28;101169.50;;;18.51;30.25
59272;BME280;45043;51.068;7.026;2023-05-31T08:36:32;101167.50;;;18.47;29.53
59272;BME280;45043;51.068;7.026;2023-05-31T08:39:34;101156.53;;;18.48;29.13
59272;BME280;45043;51.068;7.026;2023-05-31T08:45:38;101154.06;;;18.58;28.70
59272;BME280;45043;51.068;7.026;2023-05-31T08:49:00;101157.09;;;18.62;28.45
59272;BME280;45043;51.068;7.026;2023-05-31T08:52:02;101149.03;;;18.62;28.14
59272;BME280;45043;51.068;7.026;2023-05-31T08:55:03;101145.41;;;18.56;28.12
59272;BME280;45043;51.068;7.026;2023-05-31T08:58:05;101147.03;;;18.57;28.12
59272;BME280;45043;51.068;7.026;2023-05-31T09:01:06;101150.44;;;18.53;27.82
59272;BME280;45043;51.068;7.026;2023-05-31T09:04:07;101147.13;;;18.51;27.45
59272;BME280;45043;51.068;7.026;2023-05-31T09:07:08;101143.41;;;18.52;28.26
59272;BME280;45043;51.068;7.026;2023-05-31T09:10:08;101141.28;;;18.54;28.00
59272;BME280;45043;51.068;7.026;2023-05-31T09:13:09;101134.53;;;18.63;27.83
59272;BME280;45043;51.068;7.026;2023-05-31T09:16:10;101136.75;;;18.66;28.25
59272;BME280;45043;51.068;7.026;2023-05-31T09:19:11;101136.53;;;18.67;27.84
59272;BME280;45043;51.068;7.026;2023-05-31T09:22:14;101132.31;;;18.83;28.22
59272;BME280;45043;51.068;7.026;2023-05-31T09:25:15;101129.50;;;18.90;28.60
59272;BME280;45043;51.068;7.026;2023-05-31T09:28:20;101120.25;;;18.98;27.71
59272;BME280;45043;51.068;7.026;2023-05-31T09:31:24;101124.00;;;18.97;27.56
59272;BME280;45043;51.068;7.026;2023-05-31T09:34:26;101119.53;;;19.02;27.50
59272;BME280;45043;51.068;7.026;2023-05-31T09:37:27;101113.19;;;19.08;27.40
59272;BME280;45043;51.068;7.026;2023-05-31T09:40:30;101112.59;;;19.18;27.40
59272;BME280;45043;51.068;7.026;2023-05-31T09:43:38;101114.13;;;19.14;26.46
59272;BME280;45043;51.068;7.026;2023-05-31T09:46:39;101110.50;;;19.08;26.60
59272;BME280;45043;51.068;7.026;2023-05-31T09:49:43;101096.44;;;19.18;26.77
59272;BME280;45043;51.068;7.026;2023-05-31T09:52:45;101104.63;;;19.23;26.43
59272;BME280;45043;51.068;7.026;2023-05-31T09:55:46;101099.81;;;19.25;26.86
59272;BME280;45043;51.068;7.026;2023-05-31T09:58:50;101099.31;;;19.28;27.00
59272;BME280;45043;51.068;7.026;2023-05-31T10:01:51;101093.38;;;19.26;26.89
59272;BME280;45043;51.068;7.026;2023-05-31T10:04:51;101092.88;;;19.29;26.48
59272;BME280;45043;51.068;7.026;2023-05-31T10:07:52;101085.84;;;19.28;26.46
59272;BME280;45043;51.068;7.026;2023-05-31T10:10:57;101083.75;;;19.30;26.01
59272;BME280;45043;51.068;7.026;2023-05-31T10:14:03;101072.03;;;19.25;26.10
59272;BME280;45043;51.068;7.026;2023-05-31T10:17:10;101079.41;;;19.29;25.65
59272;BME280;45043;51.068;7.026;2023-05-31T10:20:16;101080.56;;;19.33;26.14
59272;BME280;45043;51.068;7.026;2023-05-31T10:23:20;101079.25;;;19.48;26.09
59272;BME280;45043;51.068;7.026;2023-05-31T10:26:22;101069.97;;;19.55;26.32
59272;BME280;45043;51.068;7.026;2023-05-31T10:29:36;101073.34;;;19.62;26.31
59272;BME280;45043;51.068;7.026;2023-05-31T10:32:45;101033.63;;;19.58;26.23
59272;BME280;45043;51.068;7.026;2023-05-31T10:35:48;101060.88;;;19.45;27.21
59272;BME280;45043;51.068;7.026;2023-05-31T10:39:05;101057.78;;;19.53;27.70
59272;BME280;45043;51.068;7.026;2023-05-31T10:45:20;101052.09;;;19.66;27.03
59272;BME280;45043;51.068;7.026;2023-05-31T10:48:38;101053.47;;;19.69;27.28
59272;BME280;45043;51.068;7.026;2023-05-31T10:54:41;101045.97;;;19.71;27.12
59272;BME280;45043;51.068;7.026;2023-05-31T10:57:41;101052.25;;;19.76;27.00
59272;BME280;45043;51.068;7.026;2023-05-31T11:00:42;101046.72;;;19.83;26.54
59272;BME280;45043;51.068;7.026;2023-05-31T11:03:53;101043.59;;;19.91;26.72
59272;BME280;45043;51.068;7.026;2023-05-31T11:06:55;101036.44;;;19.97;27.13
59272;BME280;45043;51.068;7.026;2023-05-31T11:10:25;101041.34;;;20.00;26.97
59272;BME280;45043;51.068;7.026;2023-05-31T11:20:07;101020.97;;;20.09;26.60
59272;BME280;45043;51.068;7.026;2023-05-31T11:23:30;101025.81;;;20.07;27.03
59272;BME280;45043;51.068;7.026;2023-05-31T11:26:31;101017.13;;;20.05;26.64
59272;BME280;45043;51.068;7.026;2023-05-31T11:37:32;101016.25;;;20.16;28.66
59272;BME280;45043;51.068;7.026;2023-05-31T11:40:33;101019.00;;;20.21;29.17
59272;BME280;45043;51.068;7.026;2023-05-31T11:43:36;101018.09;;;20.32;29.09
59272;BME280;45043;51.068;7.026;2023-05-31T11:46:40;101013.34;;;20.40;28.64
59272;BME280;45043;51.068;7.026;2023-05-31T11:49:42;101008.03;;;20.45;28.96
59272;BME280;45043;51.068;7.026;2023-05-31T11:52:43;101009.06;;;20.44;28.89
59272;BME280;45043;51.068;7.026;2023-05-31T11:55:47;101003.75;;;20.49;29.46
59272;BME280;45043;51.068;7.026;2023-05-31T11:58:50;100988.00;;;20.41;29.50
59272;BME280;45043;51.068;7.026;2023-05-31T12:01:50;100998.91;;;20.51;29.38
59272;BME280;45043;51.068;7.026;2023-05-31T12:04:51;101008.53;;;20.64;29.30
59272;BME280;45043;51.068;7.026;2023-05-31T12:07:53;100991.75;;;20.62;29.13
59272;BME280;45043;51.068;7.026;2023-05-31T12:11:01;100995.59;;;20.66;29.60
59272;BME280;45043;51.068;7.026;2023-05-31T12:14:03;100985.56;;;20.83;29.31
59272;BME280;45043;51.068;7.026;2023-05-31T12:17:04;100982.22;;;20.98;29.34
59272;BME280;45043;51.068;7.026;2023-05-31T12:20:05;100986.19;;;21.17;29.29
59272;BME280;45043;51.068;7.026;2023-05-31T12:23:14;100980.94;;;21.33;28.87
59272;BME280;45043;51.068;7.026;2023-05-31T12:26:14;100986.22;;;21.44;29.36
59272;BME280;45043;51.068;7.026;2023-05-31T12:29:16;100984.47;;;21.60;29.05
59272;BME280;45043;51.068;7.026;2023-05-31T12:32:17;100982.41;;;21.72;28.33
59272;BME280;45043;51.068;7.026;2023-05-31T12:35:20;100976.25;;;21.82;28.67
59272;BME280;45043;51.068;7.026;2023-05-31T12:38:27;100978.75;;;21.89;28.72
59272;BME280;45043;51.068;7.026;2023-05-31T12:41:27;100969.88;;;21.98;28.46
59272;BME280;45043;51.068;7.026;2023-05-31T12:44:30;100961.06;;;22.13;28.17
59272;BME280;45043;51.068;7.026;2023-05-31T12:47:32;100966.53;;;22.23;28.16
59272;BME280;45043;51.068;7.026;2023-05-31T12:50:33;100964.94;;;22.33;28.28
59272;BME280;45043;51.068;7.026;2023-05-31T12:53:38;100959.06;;;22.51;28.72
59272;BME280;45043;51.068;7.026;2023-05-31T12:56:40;100948.84;;;22.68;27.91
59272;BME280;45043;51.068;7.026;2023-05-31T12:59:41;100956.47;;;22.77;27.61
59272;BME280;45043;51.068;7.026;2023-05-31T13:02:42;100962.47;;;22.79;27.54
59272;BME280;45043;51.068;7.026;2023-05-31T13:05:43;100952.19;;;22.86;27.52
59272;BME280;45043;51.068;7.026;2023-05-31T13:08:43;100949.47;;;22.91;27.29
59272;BME280;45043;51.068;7.026;2023-05-31T13:11:45;100949.22;;;23.03;27.42
59272;BME280;45043;51.068;7.026;2023-05-31T13:14:49;100945.75;;;23.22;26.73
59272;BME280;45043;51.068;7.026;2023-05-31T13:17:52;100938.97;;;23.30;26.12
59272;BME280;45043;51.068;7.026;2023-05-31T13:20:52;100936.50;;;23.29;26.61
59272;BME280;45043;51.068;7.026;2023-05-31T13:23:53;100943.88;;;23.38;26.57
59272;BME280;45043;51.068;7.026;2023-05-31T13:26:54;100937.34;;;23.55;26.19
59272;BME280;45043;51.068;7.026;2023-05-31T13:29:55;100935.72;;;23.74;26.27
59272;BME280;45043;51.068;7.026;2023-05-31T13:32:55;100935.97;;;23.78;26.27
59272;BME280;45043;51.068;7.026;2023-05-31T13:35:56;100934.88;;;23.84;25.96
59272;BME280;45043;51.068;7.026;2023-05-31T13:38:57;100926.16;;;23.92;25.16
59272;BME280;45043;51.068;7.026;2023-05-31T13:41:57;100923.72;;;23.95;25.37
59272;BME280;45043;51.068;7.026;2023-05-31T13:44:58;100912.84;;;24.06;24.67
59272;BME280;45043;51.068;7.026;2023-05-31T13:47:58;100893.09;;;24.00;24.56
59272;BME280;45043;51.068;7.026;2023-05-31T13:50:59;100912.34;;;23.93;24.80
59272;BME280;45043;51.068;7.026;2023-05-31T13:53:59;100908.25;;;24.11;25.49
59272;BME280;45043;51.068;7.026;2023-05-31T13:57:00;100900.28;;;24.25;24.47
59272;BME280;45043;51.068;7.026;2023-05-31T14:00:01;100901.56;;;24.48;24.59
59272;BME280;45043;51.068;7.026;2023-05-31T14:03:11;100894.91;;;24.75;24.54
59272;BME280;45043;51.068;7.026;2023-05-31T14:06:11;100890.53;;;24.79;24.00
59272;BME280;45043;51.068;7.026;2023-05-31T14:09:12;100903.94;;;25.04;23.91
59272;BME280;45043;51.068;7.026;2023-05-31T14:12:12;100886.34;;;25.31;23.67
59272;BME280;45043;51.068;7.026;2023-05-31T14:15:13;100896.19;;;25.56;22.89
59272;BME280;45043;51.068;7.026;2023-05-31T14:18:13;100894.50;;;25.89;22.87
59272;BME280;45043;51.068;7.026;2023-05-31T14:21:14;100875.53;;;26.27;22.62
59272;BME280;45043;51.068;7.026;2023-05-31T14:24:15;100872.41;;;26.57;22.48
59272;BME280;45043;51.068;7.026;2023-05-31T14:27:16;100880.50;;;26.63;22.53
59272;BME280;45043;51.068;7.026;2023-05-31T14:30:19;100873.88;;;26.50;22.19
59272;BME280;45043;51.068;7.026;2023-05-31T14:33:19;100882.84;;;26.50;22.27
59272;BME280;45043;51.068;7.026;2023-05-31T14:36:20;100865.44;;;26.84;22.53
59272;BME280;45043;51.068;7.026;2023-05-31T14:39:20;100866.00;;;26.86;21.97
59272;BME280;45043;51.068;7.026;2023-05-31T14:42:21;100870.47;;;26.96;21.62
59272;BME280;45043;51.068;7.026;2023-05-31T14:45:22;100861.00;;;26.93;21.77
59272;BME280;45043;51.068;7.026;2023-05-31T14:48:23;100858.22;;;27.12;21.53
59272;BME280;45043;51.068;7.026;2023-05-31T14:51:23;100866.63;;;27.29;21.91
59272;BME280;45043;51.068;7.026;2023-05-31T14:54:24;100864.91;;;27.52;21.14
59272;BME280;45043;51.068;7.026;2023-05-31T14:57:24;100864.47;;;27.45;21.01
59272;BME280;45043;51.068;7.026;2023-05-31T15:00:25;100861.16;;;27.48;21.28
59272;BME280;45043;51.068;7.026;2023-05-31T15:03:25;100863.47;;;27.41;21.30
59272;BME280;45043;51.068;7.026;2023-05-31T15:06:26;100858.94;;;27.64;21.26
59272;BME280;45043;51.068;7.026;2023-05-31T15:09:27;100853.59;;;28.00;20.87
59272;BME280;45043;51.068;7.026;2023-05-31T15:12:27;100850.63;;;28.24;20.43
59272;BME280;45043;51.068;7.026;2023-05-31T15:15:27;100855.66;;;28.31;20.37
59272;BME280;45043;51.068;7.026;2023-05-31T15:18:28;100859.72;;;28.34;20.70
59272;BME280;45043;51.068;7.026;2023-05-31T15:21:28;100859.16;;;28.82;20.34
59272;BME280;45043;51.068;7.026;2023-05-31T15:24:28;100857.72;;;29.29;19.63
59272;BME280;45043;51.068;7.026;2023-05-31T15:27:29;100859.66;;;29.60;19.17
59272;BME280;45043;51.068;7.026;2023-05-31T15:30:29;100854.03;;;29.65;19.06
59272;BME280;45043;51.068;7.026;2023-05-31T15:33:30;100859.66;;;29.37;18.55
59272;BME280;45043;51.068;7.026;2023-05-31T15:36:31;100851.53;;;29.46;18.93
59272;BME280;45043;51.068;7.026;2023-05-31T15:39:31;100852.69;;;29.94;18.86
59272;BME280;45043;51.068;7.026;2023-05-31T15:42:31;100848.81;;;29.95;18.25
59272;BME280;45043;51.068;7.026;2023-05-31T15:45:32;100839.19;;;30.06;17.94
59272;BME280;45043;51.068;7.026;2023-05-31T15:48:32;100837.75;;;29.60;18.27
59272;BME280;45043;51.068;7.026;2023-05-31T15:51:32;100838.22;;;29.53;18.66
59272;BME280;45043;51.068;7.026;2023-05-31T15:54:33;100825.19;;;29.59;18.74
59272;BME280;45043;51.068;7.026;2023-05-31T15:57:33;100835.56;;;29.08;18.91
59272;BME280;45043;51.068;7.026;2023-05-31T16:00:34;100832.63;;;28.82;19.29
59272;BME280;45043;51.068;7.026;2023-05-31T16:03:34;100833.25;;;28.57;19.30
59272;BME280;45043;51.068;7.026;2023-05-31T16:06:35;100825.63;;;28.17;19.48
59272;BME280;45043;51.068;7.026;2023-05-31T16:09:35;100824.66;;;27.99;20.23
59272;BME280;45043;51.068;7.026;2023-05-31T16:12:36;100821.94;;;27.72;20.70
59272;BME280;45043;51.068;7.026;2023-05-31T16:15:36;100814.84;;;27.57;20.76
59272;BME280;45043;51.068;7.026;2023-05-31T16:18:37;100820.44;;;27.33;21.16
59272;BME280;45043;51.068;7.026;2023-05-31T16:21:37;100813.16;;;27.15;20.85
59272;BME280;45043;51.068;7.026;2023-05-31T16:24:37;100827.44;;;26.74;21.20
59272;BME280;45043;51.068;7.026;2023-05-31T16:27:38;100806.53;;;26.88;21.13
59272;BME280;45043;51.068;7.026;2023-05-31T16:30:38;100811.28;;;26.96;20.95
59272;BME280;45043;51.068;7.026;2023-05-31T16:33:38;100823.56;;;27.13;20.77
59272;BME280;45043;51.068;7.026;2023-05-31T16:36:39;100807.53;;;27.25;20.96
59272;BME280;45043;51.068;7.026;2023-05-31T16:39:40;100816.75;;;26.96;21.23
59272;BME280;45043;51.068;7.026;2023-05-31T16:42:40;100816.44;;;27.44;21.24
59272;BME280;45043;51.068;7.026;2023-05-31T16:45:40;100812.22;;;27.93;20.56
59272;BME280;45043;51.068;7.026;2023-05-31T16:48:41;100811.03;;;28.22;20.26
59272;BME280;45043;51.068;7.026;2023-05-31T16:51:41;100810.59;;;28.42;19.91
59272;BME280;45043;51.068;7.026;2023-05-31T16:54:43;100809.50;;;29.11;19.26
59272;BME280;45043;51.068;7.026;2023-05-31T16:59:12;100809.22;;;30.18;18.17
59272;BME280;45043;51.068;7.026;2023-05-31T17:02:14;100807.19;;;31.61;17.30
59272;BME280;45043;51.068;7.026;2023-05-31T17:05:18;100798.78;;;32.71;16.13
59272;BME280;45043;51.068;7.026;2023-05-31T17:08:19;100795.72;;;33.55;15.23
59272;BME280;45043;51.068;7.026;2023-05-31T17:11:23;100787.97;;;34.09;15.00
59272;BME280;45043;51.068;7.026;2023-05-31T17:14:25;100795.19;;;34.14;15.21
59272;BME280;45043;51.068;7.026;2023-05-31T17:17:27;100794.81;;;34.15;14.94
59272;BME280;45043;51.068;7.026;2023-05-31T17:20:28;100785.44;;;34.88;14.24
59272;BME280;45043;51.068;7.026;2023-05-31T17:23:28;100781.56;;;35.21;14.06
59272;BME280;45043;51.068;7.026;2023-05-31T17:26:29;100786.81;;;35.26;14.05
59272;BME280;45043;51.068;7.026;2023-05-31T17:29:29;100786.81;;;34.95;14.18
59272;BME280;45043;51.068;7.026;2023-05-31T17:32:33;100779.31;;;34.79;14.24
59272;BME280;45043;51.068;7.026;2023-05-31T17:35:35;100776.56;;;35.27;14.21
59272;BME280;45043;51.068;7.026;2023-05-31T17:38:36;100776.00;;;35.69;13.75
59272;BME280;45043;51.068;7.026;2023-05-31T17:41:37;100779.25;;;36.48;13.29
59272;BME280;45043;51.068;7.026;2023-05-31T17:44:41;100783.25;;;36.31;13.20
59272;BME280;45043;51.068;7.026;2023-05-31T17:47:42;100783.81;;;36.41;13.15
59272;BME280;45043;51.068;7.026;2023-05-31T17:50:46;100784.84;;;36.52;13.31
59272;BME280;45043;51.068;7.026;2023-05-31T17:53:48;100771.66;;;35.87;13.96
59272;BME280;45043;51.068;7.026;2023-05-31T17:56:50;100771.84;;;34.67;14.77
59272;BME280;45043;51.068;7.026;2023-05-31T17:59:51;100776.53;;;33.70;15.65
59272;BME280;45043;51.068;7.026;2023-05-31T18:02:53;100773.72;;;32.85;16.37
59272;BME280;45043;51.068;7.026;2023-05-31T18:05:53;100777.75;;;32.33;16.41
59272;BME280;45043;51.068;7.026;2023-05-31T18:08:54;100780.47;;;32.00;16.91
59272;BME280;45043;51.068;7.026;2023-05-31T18:11:55;100776.06;;;31.78;17.70
59272;BME280;45043;51.068;7.026;2023-05-31T18:14:58;100777.63;;;31.88;17.54
59272;BME280;45043;51.068;7.026;2023-05-31T18:18:00;100785.03;;;31.96;16.87
59272;BME280;45043;51.068;7.026;2023-05-31T18:21:01;100788.19;;;31.77;17.78
59272;BME280;45043;51.068;7.026;2023-05-31T18:24:03;100788.69;;;31.41;18.00
59272;BME280;45043;51.068;7.026;2023-05-31T18:27:17;100781.63;;;31.69;17.55
59272;BME280;45043;51.068;7.026;2023-05-31T18:30:22;100769.78;;;32.73;16.78
59272;BME280;45043;51.068;7.026;2023-05-31T18:33:23;100781.88;;;33.39;16.36
59272;BME280;45043;51.068;7.026;2023-05-31T18:36:24;100775.38;;;33.96;15.70
59272;BME280;45043;51.068;7.026;2023-05-31T18:39:24;100767.78;;;34.05;15.48
59272;BME280;45043;51.068;7.026;2023-05-31T18:42:25;100781.56;;;33.93;15.72
59272;BME280;45043;51.068;7.026;2023-05-31T18:45:26;100770.91;;;34.19;15.30
59272;BME280;45043;51.068;7.026;2023-05-31T18:48:27;100771.84;;;33.83;15.61
59272;BME280;45043;51.068;7.026;2023-05-31T18:51:29;100781.84;;;33.51;15.74
59272;BME280;45043;51.068;7.026;2023-05-31T18:54:31;100788.94;;;32.82;16.22
59272;BME280;45043;51.068;7.026;2023-05-31T18:57:33;100787.16;;;32.32;16.72
59272;BME280;45043;51.068;7.026;2023-05-31T19:00:34;100783.88;;;31.97;17.39
59272;BME280;45043;51.068;7.026;2023-05-31T19:03:36;100787.59;;;31.71;17.39
59272;BME280;45043;51.068;7.026;2023-05-31T19:06:38;100793.97;;;31.16;17.83
59272;BME280;45043;51.068;7.026;2023-05-31T19:09:39;100790.84;;;30.62;18.08
59272;BME280;45043;51.068;7.026;2023-05-31T19:12:40;100785.31;;;29.84;19.04
59272;BME280;45043;51.068;7.026;2023-05-31T19:15:43;100781.88;;;29.21;19.77
59272;BME280;45043;51.068;7.026;2023-05-31T19:18:45;100787.72;;;28.75;19.88
59272;BME280;45043;51.068;7.026;2023-05-31T19:21:48;100777.59;;;28.16;20.80
59272;BME280;45043;51.068;7.026;2023-05-31T19:24:54;100784.00;;;27.70;20.96
59272;BME280;45043;51.068;7.026;2023-05-31T19:27:56;100783.69;;;27.17;21.36
59272;BME280;45043;51.068;7.026;2023-05-31T19:31:03;100783.63;;;26.38;22.69
59272;BME280;45043;51.068;7.026;2023-05-31T19:34:04;100791.63;;;25.62;23.49
59272;BME280;45043;51.068;7.026;2023-05-31T19:37:05;100791.97;;;25.02;24.44
59272;BME280;45043;51.068;7.026;2023-05-31T19:40:06;100799.72;;;24.46;24.96
59272;BME280;45043;51.068;7.026;2023-05-31T19:43:08;100789.66;;;24.02;25.37
59272;BME280;45043;51.068;7.026;2023-05-31T19:46:20;100795.78;;;23.63;25.69
59272;BME280;45043;51.068;7.026;2023-05-31T19:49:25;100799.06;;;23.29;26.43
59272;BME280;45043;51.068;7.026;2023-05-31T19:52:26;100802.66;;;22.94;26.61
59272;BME280;45043;51.068;7.026;2023-05-31T19:55:29;100798.81;;;22.64;27.22
59272;BME280;45043;51.068;7.026;2023-05-31T19:58:31;100805.00;;;22.39;27.45
59272;BME280;45043;51.068;7.026;2023-05-31T20:01:35;100804.13;;;22.13;27.72
59272;BME280;45043;51.068;7.026;2023-05-31T20:04:35;100811.03;;;21.89;28.11
59272;BME280;45043;51.068;7.026;2023-05-31T20:07:36;100808.81;;;21.70;28.45
59272;BME280;45043;51.068;7.026;2023-05-31T20:10:38;100815.75;;;21.56;28.64
59272;BME280;45043;51.068;7.026;2023-05-31T20:13:42;100823.16;;;21.34;28.59
59272;BME280;45043;51.068;7.026;2023-05-31T20:16:48;100821.16;;;21.19;29.02
59272;BME280;45043;51.068;7.026;2023-05-31T20:19:49;100822.97;;;21.08;29.18
59272;BME280;45043;51.068;7.026;2023-05-31T20:22:51;100828.53;;;20.96;29.33
59272;BME280;45043;51.068;7.026;2023-05-31T20:25:52;100827.63;;;20.86;29.57
59272;BME280;45043;51.068;7.026;2023-05-31T20:28:53;100817.47;;;20.71;29.75
59272;BME280;45043;51.068;7.026;2023-05-31T20:31:54;100833.00;;;20.58;29.92
59272;BME280;45043;51.068;7.026;2023-05-31T20:34:54;100829.34;;;20.43;30.14
59272;BME280;45043;51.068;7.026;2023-05-31T20:37:55;100835.97;;;20.30;30.37
59272;BME280;45043;51.068;7.026;2023-05-31T20:40:56;100832.06;;;20.21;30.58
59272;BME280;45043;51.068;7.026;2023-05-31T20:43:56;100830.63;;;20.13;30.56
59272;BME280;45043;51.068;7.026;2023-05-31T20:46:56;100831.63;;;20.07;30.77
59272;BME280;45043;51.068;7.026;2023-05-31T20:49:58;100826.63;;;19.99;30.97
59272;BME280;45043;51.068;7.026;2023-05-31T20:53:01;100827.66;;;19.93;31.33
59272;BME280;45043;51.068;7.026;2023-05-31T20:56:02;100821.88;;;19.84;31.47
59272;BME280;45043;51.068;7.026;2023-05-31T20:59:03;100830.97;;;19.78;31.67
59272;BME280;45043;51.068;7.026;2023-05-31T21:02:04;100833.25;;;19.69;31.55
59272;BME280;45043;51.068;7.026;2023-05-31T21:05:04;100835.84;;;19.59;31.87
59272;BME280;45043;51.068;7.026;2023-05-31T21:08:05;100827.00;;;19.47;31.87
59272;BME280;45043;51.068;7.026;2023-05-31T21:11:05;100840.06;;;19.38;32.39
59272;BME280;45043;51.068;7.026;2023-05-31T21:14:07;100841.84;;;19.32;32.41
59272;BME280;45043;51.068;7.026;2023-05-31T21:17:07;100844.97;;;19.24;33.06
59272;BME280;45043;51.068;7.026;2023-05-31T21:20:08;100840.56;;;19.18;32.54
59272;BME280;45043;51.068;7.026;2023-05-31T21:23:09;100843.16;;;19.13;32.83
59272;BME280;45043;51.068;7.026;2023-05-31T21:26:10;100838.19;;;19.05;33.14
59272;BME280;45043;51.068;7.026;2023-05-31T21:29:10;100839.16;;;18.99;33.26
59272;BME280;45043;51.068;7.026;2023-05-31T21:32:10;100851.72;;;18.93;33.51
59272;BME280;45043;51.068;7.026;2023-05-31T21:35:11;100845.94;;;18.84;33.37
59272;BME280;45043;51.068;7.026;2023-05-31T21:38:12;100848.19;;;18.76;33.97
59272;BME280;45043;51.068;7.026;2023-05-31T21:41:12;100840.03;;;18.71;34.12